sensor_id;sensor_type;location;lat;lon;timestamp;P1;durP1;ratioP1;P2;durP2;ratioP2
63807;SDS011;49961;43.970;22.868;2023-04-06T00:00:29;14.38;;;12.85;;
63807;SDS011;49961;43.970;22.868;2023-04-06T00:01:30;14.70;;;13.20;;
63807;SDS011;49961;43.970;22.868;2023-04-06T00:02:30;15.17;;;13.00;;
63807;SDS011;49961;43.970;22.868;2023-04-06T00:03:31;14.27;;;12.27;;
63807;SDS011;49961;43.970;22.868;2023-04-06T00:04:31;13.27;;;11.87;;
63807;SDS011;49961;43.970;22.868;2023-04-06T00:05:31;13.00;;;11.67;;
63807;SDS011;49961;43.970;22.868;2023-04-06T00:06:32;13.53;;;12.07;;
63807;SDS011;49961;43.970;22.868;2023-04-06T00:07:33;13.88;;;12.45;;
63807;SDS011;49961;43.970;22.868;2023-04-06T00:08:34;14.03;;;12.30;;
63807;SDS011;49961;43.970;22.868;2023-04-06T00:09:34;15.80;;;12.70;;
63807;SDS011;49961;43.970;22.868;2023-04-06T00:10:35;13.23;;;11.83;;
63807;SDS011;49961;43.970;22.868;2023-04-06T00:11:35;13.83;;;11.77;;
63807;SDS011;49961;43.970;22.868;2023-04-06T00:12:36;13.80;;;12.40;;
63807;SDS011;49961;43.970;22.868;2023-04-06T00:13:36;14.93;;;12.23;;
63807;SDS011;49961;43.970;22.868;2023-04-06T00:14:37;13.07;;;11.70;;
63807;SDS011;49961;43.970;22.868;2023-04-06T00:15:37;12.40;;;11.10;;
63807;SDS011;49961;43.970;22.868;2023-04-06T00:16:38;13.50;;;12.10;;
63807;SDS011;49961;43.970;22.868;2023-04-06T00:17:38;14.77;;;12.07;;
63807;SDS011;49961;43.970;22.868;2023-04-06T00:18:39;13.80;;;12.43;;
63807;SDS011;49961;43.970;22.868;2023-04-06T00:19:40;14.20;;;12.80;;
63807;SDS011;49961;43.970;22.868;2023-04-06T00:20:40;13.07;;;11.77;;
63807;SDS011;49961;43.970;22.868;2023-04-06T00:21:41;13.37;;;12.07;;
63807;SDS011;49961;43.970;22.868;2023-04-06T00:22:41;13.13;;;11.83;;
63807;SDS011;49961;43.970;22.868;2023-04-06T00:23:42;13.93;;;12.53;;
63807;SDS011;49961;43.970;22.868;2023-04-06T00:24:42;13.57;;;12.20;;
63807;SDS011;49961;43.970;22.868;2023-04-06T00:25:43;12.47;;;11.17;;
63807;SDS011;49961;43.970;22.868;2023-04-06T00:26:43;13.63;;;10.97;;
63807;SDS011;49961;43.970;22.868;2023-04-06T00:27:44;12.90;;;11.60;;
63807;SDS011;49961;43.970;22.868;2023-04-06T00:28:44;12.47;;;11.17;;
63807;SDS011;49961;43.970;22.868;2023-04-06T00:29:45;13.80;;;11.53;;
63807;SDS011;49961;43.970;22.868;2023-04-06T00:30:45;12.50;;;11.20;;
63807;SDS011;49961;43.970;22.868;2023-04-06T00:31:46;13.33;;;11.93;;
63807;SDS011;49961;43.970;22.868;2023-04-06T00:32:46;12.80;;;11.50;;
63807;SDS011;49961;43.970;22.868;2023-04-06T00:33:47;13.10;;;11.77;;
63807;SDS011;49961;43.970;22.868;2023-04-06T00:34:48;13.07;;;11.75;;
63807;SDS011;49961;43.970;22.868;2023-04-06T00:35:49;13.10;;;11.70;;
63807;SDS011;49961;43.970;22.868;2023-04-06T00:36:49;12.90;;;11.60;;
63807;SDS011;49961;43.970;22.868;2023-04-06T00:37:50;13.10;;;11.80;;
63807;SDS011;49961;43.970;22.868;2023-04-06T00:38:50;12.80;;;11.23;;
63807;SDS011;49961;43.970;22.868;2023-04-06T00:39:51;12.90;;;11.50;;
63807;SDS011;49961;43.970;22.868;2023-04-06T00:40:51;13.00;;;11.60;;
63807;SDS011;49961;43.970;22.868;2023-04-06T00:41:52;12.40;;;11.10;;
63807;SDS011;49961;43.970;22.868;2023-04-06T00:42:54;12.68;;;11.27;;
63807;SDS011;49961;43.970;22.868;2023-04-06T00:43:54;12.40;;;11.10;;
63807;SDS011;49961;43.970;22.868;2023-04-06T00:44:56;12.13;;;10.93;;
63807;SDS011;49961;43.970;22.868;2023-04-06T00:45:58;14.07;;;11.43;;
63807;SDS011;49961;43.970;22.868;2023-04-06T00:46:58;12.33;;;10.97;;
63807;SDS011;49961;43.970;22.868;2023-04-06T00:47:59;11.50;;;10.33;;
63807;SDS011;49961;43.970;22.868;2023-04-06T00:48:59;13.07;;;11.67;;
63807;SDS011;49961;43.970;22.868;2023-04-06T00:50:00;12.63;;;11.33;;
63807;SDS011;49961;43.970;22.868;2023-04-06T00:51:01;12.80;;;11.30;;
63807;SDS011;49961;43.970;22.868;2023-04-06T00:52:01;10.60;;;9.50;;
63807;SDS011;49961;43.970;22.868;2023-04-06T00:53:02;12.57;;;11.27;;
63807;SDS011;49961;43.970;22.868;2023-04-06T00:54:02;12.77;;;11.47;;
63807;SDS011;49961;43.970;22.868;2023-04-06T00:55:03;13.27;;;11.73;;
63807;SDS011;49961;43.970;22.868;2023-04-06T00:56:04;12.67;;;11.37;;
63807;SDS011;49961;43.970;22.868;2023-04-06T00:57:05;12.40;;;11.13;;
63807;SDS011;49961;43.970;22.868;2023-04-06T00:58:05;13.40;;;12.00;;
63807;SDS011;49961;43.970;22.868;2023-04-06T00:59:06;12.43;;;11.13;;
63807;SDS011;49961;43.970;22.868;2023-04-06T01:00:06;14.77;;;11.60;;
63807;SDS011;49961;43.970;22.868;2023-04-06T01:01:07;12.80;;;10.80;;
63807;SDS011;49961;43.970;22.868;2023-04-06T01:02:08;12.50;;;11.10;;
63807;SDS011;49961;43.970;22.868;2023-04-06T01:03:08;11.70;;;10.50;;
63807;SDS011;49961;43.970;22.868;2023-04-06T01:04:09;11.77;;;10.57;;
63807;SDS011;49961;43.970;22.868;2023-04-06T01:05:09;11.77;;;10.57;;
63807;SDS011;49961;43.970;22.868;2023-04-06T01:06:10;11.67;;;10.40;;
63807;SDS011;49961;43.970;22.868;2023-04-06T01:07:10;12.97;;;11.30;;
63807;SDS011;49961;43.970;22.868;2023-04-06T01:08:11;12.23;;;10.70;;
63807;SDS011;49961;43.970;22.868;2023-04-06T01:09:11;12.23;;;10.80;;
63807;SDS011;49961;43.970;22.868;2023-04-06T01:10:22;12.57;;;11.03;;
63807;SDS011;49961;43.970;22.868;2023-04-06T01:11:26;17.38;;;11.13;;
63807;SDS011;49961;43.970;22.868;2023-04-06T01:12:26;11.70;;;10.50;;
63807;SDS011;49961;43.970;22.868;2023-04-06T01:13:26;12.03;;;10.67;;
63807;SDS011;49961;43.970;22.868;2023-04-06T01:14:27;12.30;;;11.00;;
63807;SDS011;49961;43.970;22.868;2023-04-06T01:15:28;12.33;;;10.80;;
63807;SDS011;49961;43.970;22.868;2023-04-06T01:16:29;11.68;;;10.48;;
63807;SDS011;49961;43.970;22.868;2023-04-06T01:17:30;11.70;;;10.27;;
63807;SDS011;49961;43.970;22.868;2023-04-06T01:18:30;11.27;;;10.13;;
63807;SDS011;49961;43.970;22.868;2023-04-06T01:19:30;11.30;;;10.20;;
63807;SDS011;49961;43.970;22.868;2023-04-06T01:20:31;10.93;;;9.67;;
63807;SDS011;49961;43.970;22.868;2023-04-06T01:21:31;10.67;;;9.67;;
63807;SDS011;49961;43.970;22.868;2023-04-06T01:22:32;12.00;;;9.97;;
63807;SDS011;49961;43.970;22.868;2023-04-06T01:23:32;11.47;;;10.27;;
63807;SDS011;49961;43.970;22.868;2023-04-06T01:24:33;10.60;;;9.50;;
63807;SDS011;49961;43.970;22.868;2023-04-06T01:25:33;11.43;;;10.03;;
63807;SDS011;49961;43.970;22.868;2023-04-06T01:26:34;11.37;;;9.90;;
63807;SDS011;49961;43.970;22.868;2023-04-06T01:27:35;14.48;;;9.93;;
63807;SDS011;49961;43.970;22.868;2023-04-06T01:28:36;10.70;;;9.60;;
63807;SDS011;49961;43.970;22.868;2023-04-06T01:29:37;12.05;;;10.38;;
63807;SDS011;49961;43.970;22.868;2023-04-06T01:30:41;11.50;;;10.13;;
63807;SDS011;49961;43.970;22.868;2023-04-06T01:31:41;11.37;;;9.97;;
63807;SDS011;49961;43.970;22.868;2023-04-06T01:32:42;12.37;;;9.77;;
63807;SDS011;49961;43.970;22.868;2023-04-06T01:33:43;10.75;;;9.65;;
63807;SDS011;49961;43.970;22.868;2023-04-06T01:34:43;10.83;;;9.73;;
63807;SDS011;49961;43.970;22.868;2023-04-06T01:35:44;13.50;;;10.70;;
63807;SDS011;49961;43.970;22.868;2023-04-06T01:36:45;12.23;;;9.43;;
63807;SDS011;49961;43.970;22.868;2023-04-06T01:37:45;10.83;;;9.37;;
63807;SDS011;49961;43.970;22.868;2023-04-06T01:38:46;11.47;;;10.30;;
63807;SDS011;49961;43.970;22.868;2023-04-06T01:39:46;11.43;;;10.03;;
63807;SDS011;49961;43.970;22.868;2023-04-06T01:40:47;11.00;;;9.83;;
63807;SDS011;49961;43.970;22.868;2023-04-06T01:41:47;10.60;;;9.50;;
63807;SDS011;49961;43.970;22.868;2023-04-06T01:42:47;12.37;;;9.63;;
63807;SDS011;49961;43.970;22.868;2023-04-06T01:43:48;9.93;;;8.93;;
63807;SDS011;49961;43.970;22.868;2023-04-06T01:44:49;11.40;;;9.80;;
63807;SDS011;49961;43.970;22.868;2023-04-06T01:45:50;10.93;;;9.77;;
63807;SDS011;49961;43.970;22.868;2023-04-06T01:46:50;10.70;;;9.57;;
63807;SDS011;49961;43.970;22.868;2023-04-06T01:47:51;10.37;;;8.73;;
63807;SDS011;49961;43.970;22.868;2023-04-06T01:48:51;10.77;;;9.67;;
63807;SDS011;49961;43.970;22.868;2023-04-06T01:49:52;11.07;;;9.37;;
63807;SDS011;49961;43.970;22.868;2023-04-06T01:50:53;11.17;;;10.00;;
63807;SDS011;49961;43.970;22.868;2023-04-06T01:51:54;11.30;;;9.77;;
63807;SDS011;49961;43.970;22.868;2023-04-06T01:52:55;10.80;;;9.70;;
63807;SDS011;49961;43.970;22.868;2023-04-06T01:53:55;11.90;;;9.97;;
63807;SDS011;49961;43.970;22.868;2023-04-06T01:54:56;11.87;;;10.10;;
63807;SDS011;49961;43.970;22.868;2023-04-06T01:55:56;10.80;;;9.63;;
63807;SDS011;49961;43.970;22.868;2023-04-06T01:56:56;11.03;;;9.83;;
63807;SDS011;49961;43.970;22.868;2023-04-06T01:57:57;12.67;;;10.00;;
63807;SDS011;49961;43.970;22.868;2023-04-06T01:58:57;12.83;;;9.50;;
63807;SDS011;49961;43.970;22.868;2023-04-06T01:59:58;13.37;;;9.50;;
63807;SDS011;49961;43.970;22.868;2023-04-06T02:00:58;10.37;;;9.20;;
63807;SDS011;49961;43.970;22.868;2023-04-06T02:01:59;10.50;;;9.40;;
63807;SDS011;49961;43.970;22.868;2023-04-06T02:02:59;11.63;;;9.70;;
63807;SDS011;49961;43.970;22.868;2023-04-06T02:04:00;10.53;;;9.30;;
63807;SDS011;49961;43.970;22.868;2023-04-06T02:05:00;11.10;;;9.43;;
63807;SDS011;49961;43.970;22.868;2023-04-06T02:06:01;10.60;;;9.50;;
63807;SDS011;49961;43.970;22.868;2023-04-06T02:07:01;11.73;;;9.87;;
63807;SDS011;49961;43.970;22.868;2023-04-06T02:08:02;11.33;;;9.57;;
63807;SDS011;49961;43.970;22.868;2023-04-06T02:09:02;10.07;;;9.00;;
63807;SDS011;49961;43.970;22.868;2023-04-06T02:10:03;12.50;;;9.73;;
63807;SDS011;49961;43.970;22.868;2023-04-06T02:11:03;11.03;;;9.43;;
63807;SDS011;49961;43.970;22.868;2023-04-06T02:12:04;11.63;;;9.87;;
63807;SDS011;49961;43.970;22.868;2023-04-06T02:13:05;10.53;;;9.53;;
63807;SDS011;49961;43.970;22.868;2023-04-06T02:14:05;11.67;;;9.60;;
63807;SDS011;49961;43.970;22.868;2023-04-06T02:15:06;10.93;;;9.50;;
63807;SDS011;49961;43.970;22.868;2023-04-06T02:16:07;11.90;;;10.43;;
63807;SDS011;49961;43.970;22.868;2023-04-06T02:17:07;10.97;;;9.77;;
63807;SDS011;49961;43.970;22.868;2023-04-06T02:18:08;11.60;;;9.70;;
63807;SDS011;49961;43.970;22.868;2023-04-06T02:19:09;11.82;;;9.98;;
63807;SDS011;49961;43.970;22.868;2023-04-06T02:20:10;12.03;;;9.60;;
63807;SDS011;49961;43.970;22.868;2023-04-06T02:21:10;11.63;;;8.93;;
63807;SDS011;49961;43.970;22.868;2023-04-06T02:22:11;11.70;;;9.77;;
63807;SDS011;49961;43.970;22.868;2023-04-06T02:23:12;11.00;;;9.90;;
63807;SDS011;49961;43.970;22.868;2023-04-06T02:24:12;11.47;;;10.27;;
63807;SDS011;49961;43.970;22.868;2023-04-06T02:25:12;11.63;;;9.67;;
63807;SDS011;49961;43.970;22.868;2023-04-06T02:26:13;13.57;;;9.67;;
63807;SDS011;49961;43.970;22.868;2023-04-06T02:27:14;12.35;;;9.70;;
63807;SDS011;49961;43.970;22.868;2023-04-06T02:28:15;10.77;;;9.67;;
63807;SDS011;49961;43.970;22.868;2023-04-06T02:29:15;11.87;;;9.50;;
63807;SDS011;49961;43.970;22.868;2023-04-06T02:30:16;10.87;;;9.70;;
63807;SDS011;49961;43.970;22.868;2023-04-06T02:31:16;11.77;;;10.53;;
63807;SDS011;49961;43.970;22.868;2023-04-06T02:32:17;12.83;;;9.83;;
63807;SDS011;49961;43.970;22.868;2023-04-06T02:33:17;10.97;;;9.70;;
63807;SDS011;49961;43.970;22.868;2023-04-06T02:34:18;10.97;;;9.87;;
63807;SDS011;49961;43.970;22.868;2023-04-06T02:35:18;10.83;;;9.73;;
63807;SDS011;49961;43.970;22.868;2023-04-06T02:36:18;11.00;;;9.80;;
63807;SDS011;49961;43.970;22.868;2023-04-06T02:37:19;12.80;;;9.70;;
63807;SDS011;49961;43.970;22.868;2023-04-06T02:38:20;11.77;;;9.20;;
63807;SDS011;49961;43.970;22.868;2023-04-06T02:39:20;10.50;;;9.37;;
63807;SDS011;49961;43.970;22.868;2023-04-06T02:40:20;11.03;;;9.57;;
63807;SDS011;49961;43.970;22.868;2023-04-06T02:41:21;10.87;;;9.23;;
63807;SDS011;49961;43.970;22.868;2023-04-06T02:42:21;11.73;;;10.10;;
63807;SDS011;49961;43.970;22.868;2023-04-06T02:43:22;12.30;;;10.00;;
63807;SDS011;49961;43.970;22.868;2023-04-06T02:44:22;12.83;;;9.43;;
63807;SDS011;49961;43.970;22.868;2023-04-06T02:45:23;12.27;;;10.20;;
63807;SDS011;49961;43.970;22.868;2023-04-06T02:46:23;11.93;;;10.17;;
63807;SDS011;49961;43.970;22.868;2023-04-06T02:47:24;11.23;;;9.73;;
63807;SDS011;49961;43.970;22.868;2023-04-06T02:48:24;13.13;;;10.53;;
63807;SDS011;49961;43.970;22.868;2023-04-06T02:49:25;11.80;;;9.50;;
63807;SDS011;49961;43.970;22.868;2023-04-06T02:50:25;11.60;;;10.10;;
63807;SDS011;49961;43.970;22.868;2023-04-06T02:51:26;13.03;;;10.13;;
63807;SDS011;49961;43.970;22.868;2023-04-06T02:52:27;13.53;;;10.07;;
63807;SDS011;49961;43.970;22.868;2023-04-06T02:53:27;11.17;;;9.57;;
63807;SDS011;49961;43.970;22.868;2023-04-06T02:54:28;11.43;;;9.93;;
63807;SDS011;49961;43.970;22.868;2023-04-06T02:55:28;12.47;;;10.20;;
63807;SDS011;49961;43.970;22.868;2023-04-06T02:56:28;11.93;;;10.10;;
63807;SDS011;49961;43.970;22.868;2023-04-06T02:57:29;10.80;;;9.57;;
63807;SDS011;49961;43.970;22.868;2023-04-06T02:58:29;10.43;;;9.27;;
63807;SDS011;49961;43.970;22.868;2023-04-06T02:59:30;11.43;;;9.87;;
63807;SDS011;49961;43.970;22.868;2023-04-06T03:00:30;11.67;;;9.47;;
63807;SDS011;49961;43.970;22.868;2023-04-06T03:01:31;11.97;;;10.40;;
63807;SDS011;49961;43.970;22.868;2023-04-06T03:02:31;11.57;;;9.73;;
63807;SDS011;49961;43.970;22.868;2023-04-06T03:03:32;15.53;;;10.40;;
63807;SDS011;49961;43.970;22.868;2023-04-06T03:04:32;11.90;;;9.83;;
63807;SDS011;49961;43.970;22.868;2023-04-06T03:05:33;13.33;;;10.57;;
63807;SDS011;49961;43.970;22.868;2023-04-06T03:06:33;11.20;;;9.30;;
63807;SDS011;49961;43.970;22.868;2023-04-06T03:07:33;11.73;;;10.33;;
63807;SDS011;49961;43.970;22.868;2023-04-06T03:08:34;12.57;;;10.20;;
63807;SDS011;49961;43.970;22.868;2023-04-06T03:09:36;11.67;;;10.07;;
63807;SDS011;49961;43.970;22.868;2023-04-06T03:10:38;12.50;;;9.85;;
63807;SDS011;49961;43.970;22.868;2023-04-06T03:11:38;12.03;;;10.20;;
63807;SDS011;49961;43.970;22.868;2023-04-06T03:12:39;12.77;;;10.57;;
63807;SDS011;49961;43.970;22.868;2023-04-06T03:13:41;10.80;;;9.70;;
63807;SDS011;49961;43.970;22.868;2023-04-06T03:14:41;13.50;;;10.70;;
63807;SDS011;49961;43.970;22.868;2023-04-06T03:15:42;11.83;;;10.27;;
63807;SDS011;49961;43.970;22.868;2023-04-06T03:16:42;13.20;;;10.60;;
63807;SDS011;49961;43.970;22.868;2023-04-06T03:17:43;11.10;;;9.90;;
63807;SDS011;49961;43.970;22.868;2023-04-06T03:18:43;12.83;;;10.50;;
63807;SDS011;49961;43.970;22.868;2023-04-06T03:19:45;12.48;;;10.32;;
63807;SDS011;49961;43.970;22.868;2023-04-06T03:20:45;11.93;;;10.07;;
63807;SDS011;49961;43.970;22.868;2023-04-06T03:21:47;12.52;;;10.32;;
63807;SDS011;49961;43.970;22.868;2023-04-06T03:22:47;11.67;;;10.33;;
63807;SDS011;49961;43.970;22.868;2023-04-06T03:23:47;12.10;;;9.83;;
63807;SDS011;49961;43.970;22.868;2023-04-06T03:24:50;11.65;;;10.13;;
63807;SDS011;49961;43.970;22.868;2023-04-06T03:25:51;11.83;;;9.83;;
63807;SDS011;49961;43.970;22.868;2023-04-06T03:26:51;12.20;;;10.03;;
63807;SDS011;49961;43.970;22.868;2023-04-06T03:27:52;11.60;;;10.23;;
63807;SDS011;49961;43.970;22.868;2023-04-06T03:28:52;12.43;;;10.57;;
63807;SDS011;49961;43.970;22.868;2023-04-06T03:29:53;14.73;;;10.67;;
63807;SDS011;49961;43.970;22.868;2023-04-06T03:30:53;11.43;;;10.10;;
63807;SDS011;49961;43.970;22.868;2023-04-06T03:31:53;11.93;;;10.23;;
63807;SDS011;49961;43.970;22.868;2023-04-06T03:32:54;12.25;;;10.63;;
63807;SDS011;49961;43.970;22.868;2023-04-06T03:33:55;12.87;;;10.37;;
63807;SDS011;49961;43.970;22.868;2023-04-06T03:34:56;13.03;;;10.33;;
63807;SDS011;49961;43.970;22.868;2023-04-06T03:35:56;11.30;;;10.10;;
63807;SDS011;49961;43.970;22.868;2023-04-06T03:36:57;13.27;;;10.23;;
63807;SDS011;49961;43.970;22.868;2023-04-06T03:37:57;11.40;;;9.63;;
63807;SDS011;49961;43.970;22.868;2023-04-06T03:38:57;11.93;;;10.37;;
63807;SDS011;49961;43.970;22.868;2023-04-06T03:39:58;11.73;;;10.50;;
63807;SDS011;49961;43.970;22.868;2023-04-06T03:40:58;12.10;;;10.47;;
63807;SDS011;49961;43.970;22.868;2023-04-06T03:41:59;11.50;;;10.30;;
63807;SDS011;49961;43.970;22.868;2023-04-06T03:42:59;12.97;;;10.20;;
63807;SDS011;49961;43.970;22.868;2023-04-06T03:44:00;13.00;;;10.10;;
63807;SDS011;49961;43.970;22.868;2023-04-06T03:45:00;14.33;;;10.60;;
63807;SDS011;49961;43.970;22.868;2023-04-06T03:46:01;13.80;;;10.43;;
63807;SDS011;49961;43.970;22.868;2023-04-06T03:47:01;12.47;;;10.73;;
63807;SDS011;49961;43.970;22.868;2023-04-06T03:48:02;12.60;;;10.60;;
63807;SDS011;49961;43.970;22.868;2023-04-06T03:49:03;12.50;;;10.03;;
63807;SDS011;49961;43.970;22.868;2023-04-06T03:50:03;12.60;;;10.37;;
63807;SDS011;49961;43.970;22.868;2023-04-06T03:51:04;11.70;;;9.90;;
63807;SDS011;49961;43.970;22.868;2023-04-06T03:52:05;11.93;;;10.03;;
63807;SDS011;49961;43.970;22.868;2023-04-06T03:53:05;12.53;;;10.93;;
63807;SDS011;49961;43.970;22.868;2023-04-06T03:54:06;12.40;;;10.33;;
63807;SDS011;49961;43.970;22.868;2023-04-06T03:55:06;12.57;;;10.37;;
63807;SDS011;49961;43.970;22.868;2023-04-06T03:56:07;12.80;;;10.32;;
63807;SDS011;49961;43.970;22.868;2023-04-06T03:57:08;12.80;;;10.57;;
63807;SDS011;49961;43.970;22.868;2023-04-06T03:58:08;11.10;;;9.90;;
63807;SDS011;49961;43.970;22.868;2023-04-06T03:59:09;13.03;;;10.30;;
63807;SDS011;49961;43.970;22.868;2023-04-06T04:00:09;11.97;;;9.50;;
63807;SDS011;49961;43.970;22.868;2023-04-06T04:01:11;12.60;;;10.32;;
63807;SDS011;49961;43.970;22.868;2023-04-06T04:02:11;12.27;;;10.03;;
63807;SDS011;49961;43.970;22.868;2023-04-06T04:03:11;11.10;;;9.90;;
63807;SDS011;49961;43.970;22.868;2023-04-06T04:04:12;12.00;;;10.03;;
63807;SDS011;49961;43.970;22.868;2023-04-06T04:05:12;13.13;;;10.70;;
63807;SDS011;49961;43.970;22.868;2023-04-06T04:06:13;12.37;;;10.50;;
63807;SDS011;49961;43.970;22.868;2023-04-06T04:07:13;11.10;;;9.87;;
63807;SDS011;49961;43.970;22.868;2023-04-06T04:08:14;14.20;;;10.53;;
63807;SDS011;49961;43.970;22.868;2023-04-06T04:09:15;12.17;;;10.37;;
63807;SDS011;49961;43.970;22.868;2023-04-06T04:10:15;11.70;;;9.50;;
63807;SDS011;49961;43.970;22.868;2023-04-06T04:11:16;12.87;;;10.37;;
63807;SDS011;49961;43.970;22.868;2023-04-06T04:12:16;11.93;;;10.47;;
63807;SDS011;49961;43.970;22.868;2023-04-06T04:13:17;12.13;;;10.50;;
63807;SDS011;49961;43.970;22.868;2023-04-06T04:14:18;13.80;;;10.45;;
63807;SDS011;49961;43.970;22.868;2023-04-06T04:15:18;13.30;;;10.57;;
63807;SDS011;49961;43.970;22.868;2023-04-06T04:16:19;14.47;;;10.80;;
63807;SDS011;49961;43.970;22.868;2023-04-06T04:17:21;11.43;;;10.23;;
63807;SDS011;49961;43.970;22.868;2023-04-06T04:18:21;13.45;;;10.43;;
63807;SDS011;49961;43.970;22.868;2023-04-06T04:19:22;16.60;;;10.73;;
63807;SDS011;49961;43.970;22.868;2023-04-06T04:20:22;12.30;;;10.90;;
63807;SDS011;49961;43.970;22.868;2023-04-06T04:21:23;13.17;;;11.30;;
63807;SDS011;49961;43.970;22.868;2023-04-06T04:22:23;13.70;;;11.10;;
63807;SDS011;49961;43.970;22.868;2023-04-06T04:23:24;13.10;;;10.77;;
63807;SDS011;49961;43.970;22.868;2023-04-06T04:24:25;14.17;;;10.70;;
63807;SDS011;49961;43.970;22.868;2023-04-06T04:25:26;14.63;;;10.65;;
63807;SDS011;49961;43.970;22.868;2023-04-06T04:26:26;13.67;;;10.90;;
63807;SDS011;49961;43.970;22.868;2023-04-06T04:27:26;11.07;;;9.67;;
63807;SDS011;49961;43.970;22.868;2023-04-06T04:28:27;12.13;;;10.83;;
63807;SDS011;49961;43.970;22.868;2023-04-06T04:29:27;11.70;;;10.50;;
63807;SDS011;49961;43.970;22.868;2023-04-06T04:30:28;13.63;;;11.07;;
63807;SDS011;49961;43.970;22.868;2023-04-06T04:31:28;13.50;;;10.20;;
63807;SDS011;49961;43.970;22.868;2023-04-06T04:32:29;11.70;;;10.30;;
63807;SDS011;49961;43.970;22.868;2023-04-06T04:33:30;13.57;;;10.87;;
63807;SDS011;49961;43.970;22.868;2023-04-06T04:34:30;12.63;;;10.23;;
63807;SDS011;49961;43.970;22.868;2023-04-06T04:35:31;15.10;;;10.23;;
63807;SDS011;49961;43.970;22.868;2023-04-06T04:36:32;13.43;;;10.70;;
63807;SDS011;49961;43.970;22.868;2023-04-06T04:37:32;13.57;;;10.40;;
63807;SDS011;49961;43.970;22.868;2023-04-06T04:38:34;13.25;;;10.50;;
63807;SDS011;49961;43.970;22.868;2023-04-06T04:39:35;14.83;;;11.47;;
63807;SDS011;49961;43.970;22.868;2023-04-06T04:40:35;15.83;;;10.53;;
63807;SDS011;49961;43.970;22.868;2023-04-06T04:41:36;12.73;;;10.37;;
63807;SDS011;49961;43.970;22.868;2023-04-06T04:42:36;12.80;;;10.80;;
63807;SDS011;49961;43.970;22.868;2023-04-06T04:43:37;12.67;;;10.10;;
63807;SDS011;49961;43.970;22.868;2023-04-06T04:44:38;14.00;;;10.53;;
63807;SDS011;49961;43.970;22.868;2023-04-06T04:45:38;13.57;;;10.97;;
63807;SDS011;49961;43.970;22.868;2023-04-06T04:46:39;13.53;;;10.00;;
63807;SDS011;49961;43.970;22.868;2023-04-06T04:47:39;13.63;;;9.93;;
63807;SDS011;49961;43.970;22.868;2023-04-06T04:48:40;14.77;;;9.73;;
63807;SDS011;49961;43.970;22.868;2023-04-06T04:49:40;13.20;;;10.43;;
63807;SDS011;49961;43.970;22.868;2023-04-06T04:50:40;13.10;;;10.20;;
63807;SDS011;49961;43.970;22.868;2023-04-06T04:51:41;12.00;;;10.10;;
63807;SDS011;49961;43.970;22.868;2023-04-06T04:52:41;12.13;;;10.70;;
63807;SDS011;49961;43.970;22.868;2023-04-06T04:53:42;16.47;;;10.53;;
63807;SDS011;49961;43.970;22.868;2023-04-06T04:54:42;11.97;;;10.17;;
63807;SDS011;49961;43.970;22.868;2023-04-06T04:55:43;13.53;;;10.03;;
63807;SDS011;49961;43.970;22.868;2023-04-06T04:56:43;13.37;;;10.17;;
63807;SDS011;49961;43.970;22.868;2023-04-06T04:57:44;11.70;;;10.00;;
63807;SDS011;49961;43.970;22.868;2023-04-06T04:58:45;12.13;;;8.37;;
63807;SDS011;49961;43.970;22.868;2023-04-06T04:59:45;13.87;;;10.60;;
63807;SDS011;49961;43.970;22.868;2023-04-06T05:00:46;13.37;;;10.40;;
63807;SDS011;49961;43.970;22.868;2023-04-06T05:01:46;12.60;;;10.17;;
63807;SDS011;49961;43.970;22.868;2023-04-06T05:02:47;12.00;;;9.73;;
63807;SDS011;49961;43.970;22.868;2023-04-06T05:03:47;13.57;;;9.77;;
63807;SDS011;49961;43.970;22.868;2023-04-06T05:04:47;11.70;;;9.93;;
63807;SDS011;49961;43.970;22.868;2023-04-06T05:05:48;12.80;;;10.10;;
63807;SDS011;49961;43.970;22.868;2023-04-06T05:06:49;11.70;;;10.07;;
63807;SDS011;49961;43.970;22.868;2023-04-06T05:07:49;14.03;;;9.83;;
63807;SDS011;49961;43.970;22.868;2023-04-06T05:08:50;12.20;;;9.83;;
63807;SDS011;49961;43.970;22.868;2023-04-06T05:09:50;11.70;;;9.90;;
63807;SDS011;49961;43.970;22.868;2023-04-06T05:10:51;13.23;;;9.87;;
63807;SDS011;49961;43.970;22.868;2023-04-06T05:11:51;12.93;;;9.80;;
63807;SDS011;49961;43.970;22.868;2023-04-06T05:12:52;10.87;;;9.37;;
63807;SDS011;49961;43.970;22.868;2023-04-06T05:13:52;11.70;;;10.10;;
63807;SDS011;49961;43.970;22.868;2023-04-06T05:14:53;10.63;;;9.27;;
63807;SDS011;49961;43.970;22.868;2023-04-06T05:15:54;11.30;;;10.10;;
63807;SDS011;49961;43.970;22.868;2023-04-06T05:16:54;12.37;;;9.93;;
63807;SDS011;49961;43.970;22.868;2023-04-06T05:17:55;12.00;;;9.20;;
63807;SDS011;49961;43.970;22.868;2023-04-06T05:18:56;13.20;;;9.40;;
63807;SDS011;49961;43.970;22.868;2023-04-06T05:19:56;13.83;;;8.80;;
63807;SDS011;49961;43.970;22.868;2023-04-06T05:20:57;11.27;;;9.17;;
63807;SDS011;49961;43.970;22.868;2023-04-06T05:21:57;12.50;;;9.73;;
63807;SDS011;49961;43.970;22.868;2023-04-06T05:22:58;11.70;;;9.20;;
63807;SDS011;49961;43.970;22.868;2023-04-06T05:23:58;12.00;;;9.27;;
63807;SDS011;49961;43.970;22.868;2023-04-06T05:24:59;13.30;;;8.97;;
63807;SDS011;49961;43.970;22.868;2023-04-06T05:26:01;11.18;;;9.02;;
63807;SDS011;49961;43.970;22.868;2023-04-06T05:27:02;11.73;;;8.90;;
63807;SDS011;49961;43.970;22.868;2023-04-06T05:28:02;12.33;;;8.80;;
63807;SDS011;49961;43.970;22.868;2023-04-06T05:29:03;12.07;;;9.23;;
63807;SDS011;49961;43.970;22.868;2023-04-06T05:30:04;12.87;;;9.00;;
63807;SDS011;49961;43.970;22.868;2023-04-06T05:31:05;10.43;;;9.00;;
63807;SDS011;49961;43.970;22.868;2023-04-06T05:32:06;13.07;;;9.37;;
63807;SDS011;49961;43.970;22.868;2023-04-06T05:33:06;10.40;;;8.47;;
63807;SDS011;49961;43.970;22.868;2023-04-06T05:34:07;10.90;;;9.33;;
63807;SDS011;49961;43.970;22.868;2023-04-06T05:35:09;12.90;;;8.93;;
63807;SDS011;49961;43.970;22.868;2023-04-06T05:36:10;13.75;;;8.80;;
63807;SDS011;49961;43.970;22.868;2023-04-06T05:37:11;11.02;;;8.80;;
63807;SDS011;49961;43.970;22.868;2023-04-06T05:38:12;11.53;;;9.33;;
63807;SDS011;49961;43.970;22.868;2023-04-06T05:39:12;9.97;;;8.87;;
63807;SDS011;49961;43.970;22.868;2023-04-06T05:40:13;10.70;;;8.80;;
63807;SDS011;49961;43.970;22.868;2023-04-06T05:41:13;10.73;;;8.40;;
63807;SDS011;49961;43.970;22.868;2023-04-06T05:42:14;11.60;;;8.53;;
63807;SDS011;49961;43.970;22.868;2023-04-06T05:43:15;12.45;;;9.00;;
63807;SDS011;49961;43.970;22.868;2023-04-06T05:44:15;9.70;;;8.70;;
63807;SDS011;49961;43.970;22.868;2023-04-06T05:45:16;11.07;;;8.57;;
63807;SDS011;49961;43.970;22.868;2023-04-06T05:46:18;9.85;;;8.60;;
63807;SDS011;49961;43.970;22.868;2023-04-06T05:47:18;11.83;;;9.07;;
63807;SDS011;49961;43.970;22.868;2023-04-06T05:48:19;11.90;;;8.80;;
63807;SDS011;49961;43.970;22.868;2023-04-06T05:49:20;9.93;;;8.87;;
63807;SDS011;49961;43.970;22.868;2023-04-06T05:50:20;12.87;;;9.00;;
63807;SDS011;49961;43.970;22.868;2023-04-06T05:51:20;12.87;;;9.33;;